Terminal Aerodrome Forecast
Issued by NWS Chicago, IL

Home | Current Version | Previous Version | Text Only | Print | Product List | Glossary Off
Versions: 1 2 3 4 5 6 7 8 9 10 11 12 13 14 15 16 17 18 19 20 21 22 23 24 25 26 27 28

384
FTUS43 KLOT 171022 AAC
TAFRFD
TAF AMD
KRFD 171022Z 1710/1806 19011KT P6SM SCT010 OVC018
     FM171400 22012G20KT P6SM SCT020 BKN035
     FM171700 25018G26KT P6SM BKN050
     FM180100 26010KT P6SM BKN050=

USA.gov is the U.S. government's official web portal to all federal, state and local government web resources and services.